sensor_id;sensor_type;location;lat;lon;timestamp;P1;durP1;ratioP1;P2;durP2;ratioP2
69588;SDS011;56792;50.644;17.984;2023-05-27T10:29:14;5.40;;;2.30;;
69588;SDS011;56792;50.644;17.984;2023-05-27T10:31:48;7.50;;;2.90;;
69588;SDS011;56792;50.644;17.984;2023-05-27T10:34:18;5.60;;;2.70;;
69588;SDS011;56792;50.644;17.984;2023-05-27T10:36:47;5.40;;;3.10;;
69588;SDS011;56792;50.644;17.984;2023-05-27T10:39:26;5.50;;;2.60;;
69588;SDS011;56792;50.644;17.984;2023-05-27T10:41:55;4.70;;;2.30;;
69588;SDS011;56792;50.644;17.984;2023-05-27T10:44:28;5.80;;;2.50;;
69588;SDS011;56792;50.644;17.984;2023-05-27T10:47:00;5.10;;;2.60;;
69588;SDS011;56792;50.644;17.984;2023-05-27T10:49:33;6.40;;;2.50;;
69588;SDS011;56792;50.644;17.984;2023-05-27T10:52:06;5.00;;;2.60;;
69588;SDS011;56792;50.644;17.984;2023-05-27T10:54:38;5.70;;;2.60;;
69588;SDS011;56792;50.644;17.984;2023-05-27T10:57:07;6.50;;;2.60;;
69588;SDS011;56792;50.644;17.984;2023-05-27T10:59:40;5.30;;;2.70;;
69588;SDS011;56792;50.644;17.984;2023-05-27T11:02:15;5.70;;;2.50;;
69588;SDS011;56792;50.644;17.984;2023-05-27T11:04:44;6.80;;;2.50;;
69588;SDS011;56792;50.644;17.984;2023-05-27T11:07:18;6.40;;;2.60;;
69588;SDS011;56792;50.644;17.984;2023-05-27T11:09:48;5.20;;;2.80;;
69588;SDS011;56792;50.644;17.984;2023-05-27T11:12:19;6.40;;;2.70;;
69588;SDS011;56792;50.644;17.984;2023-05-27T19:34:14;7.20;;;3.90;;
69588;SDS011;56792;50.644;17.984;2023-05-27T19:37:04;7.20;;;4.10;;
69588;SDS011;56792;50.644;17.984;2023-05-27T19:40:42;8.40;;;2.90;;
69588;SDS011;56792;50.644;17.984;2023-05-27T19:43:35;6.50;;;3.30;;
69588;SDS011;56792;50.644;17.984;2023-05-27T19:46:06;7.20;;;3.00;;
69588;SDS011;56792;50.644;17.984;2023-05-27T19:48:58;11.30;;;5.20;;
69588;SDS011;56792;50.644;17.984;2023-05-27T19:51:50;10.90;;;4.80;;
69588;SDS011;56792;50.644;17.984;2023-05-27T19:54:22;10.30;;;5.60;;
69588;SDS011;56792;50.644;17.984;2023-05-27T19:57:14;9.80;;;5.00;;
69588;SDS011;56792;50.644;17.984;2023-05-27T20:00:09;11.20;;;4.80;;
69588;SDS011;56792;50.644;17.984;2023-05-27T20:03:01;7.80;;;4.30;;
69588;SDS011;56792;50.644;17.984;2023-05-27T20:05:33;7.50;;;4.30;;
69588;SDS011;56792;50.644;17.984;2023-05-27T20:08:25;9.50;;;4.00;;
69588;SDS011;56792;50.644;17.984;2023-05-27T20:10:58;7.50;;;4.50;;
69588;SDS011;56792;50.644;17.984;2023-05-27T20:16:38;8.90;;;3.80;;
69588;SDS011;56792;50.644;17.984;2023-05-27T20:19:30;6.20;;;3.10;;
69588;SDS011;56792;50.644;17.984;2023-05-27T20:22:22;5.50;;;2.90;;
69588;SDS011;56792;50.644;17.984;2023-05-27T20:25:14;5.70;;;2.60;;
69588;SDS011;56792;50.644;17.984;2023-05-27T20:28:06;6.80;;;2.80;;
69588;SDS011;56792;50.644;17.984;2023-05-27T20:30:59;6.60;;;2.50;;
69588;SDS011;56792;50.644;17.984;2023-05-27T20:33:50;8.10;;;2.60;;
69588;SDS011;56792;50.644;17.984;2023-05-27T20:36:43;7.40;;;2.90;;
69588;SDS011;56792;50.644;17.984;2023-05-27T20:39:35;5.10;;;2.90;;
69588;SDS011;56792;50.644;17.984;2023-05-27T20:42:26;4.70;;;2.40;;
69588;SDS011;56792;50.644;17.984;2023-05-27T20:44:58;7.10;;;2.50;;
69588;SDS011;56792;50.644;17.984;2023-05-27T20:47:51;6.30;;;2.20;;
69588;SDS011;56792;50.644;17.984;2023-05-27T20:50:23;5.80;;;2.40;;
69588;SDS011;56792;50.644;17.984;2023-05-27T20:53:15;4.80;;;2.20;;
69588;SDS011;56792;50.644;17.984;2023-05-27T20:55:47;5.30;;;2.10;;
69588;SDS011;56792;50.644;17.984;2023-05-27T20:58:18;6.70;;;2.40;;
69588;SDS011;56792;50.644;17.984;2023-05-27T21:00:49;6.20;;;2.30;;
69588;SDS011;56792;50.644;17.984;2023-05-27T21:03:20;7.60;;;1.90;;
69588;SDS011;56792;50.644;17.984;2023-05-27T21:05:52;5.10;;;2.30;;
69588;SDS011;56792;50.644;17.984;2023-05-27T21:08:24;4.40;;;2.30;;
69588;SDS011;56792;50.644;17.984;2023-05-27T21:10:56;6.60;;;2.40;;
69588;SDS011;56792;50.644;17.984;2023-05-27T21:13:28;5.10;;;2.80;;
69588;SDS011;56792;50.644;17.984;2023-05-27T21:16:00;6.00;;;2.50;;
69588;SDS011;56792;50.644;17.984;2023-05-27T21:18:32;5.50;;;2.50;;
69588;SDS011;56792;50.644;17.984;2023-05-27T21:21:06;5.40;;;2.60;;
69588;SDS011;56792;50.644;17.984;2023-05-27T21:23:39;6.80;;;2.60;;
69588;SDS011;56792;50.644;17.984;2023-05-27T21:26:11;5.40;;;2.30;;
69588;SDS011;56792;50.644;17.984;2023-05-27T21:28:43;4.90;;;2.90;;
69588;SDS011;56792;50.644;17.984;2023-05-27T21:31:14;9.60;;;3.30;;
69588;SDS011;56792;50.644;17.984;2023-05-27T21:33:47;7.00;;;3.00;;
69588;SDS011;56792;50.644;17.984;2023-05-27T21:36:19;7.30;;;2.80;;
69588;SDS011;56792;50.644;17.984;2023-05-27T21:38:51;5.00;;;2.80;;
69588;SDS011;56792;50.644;17.984;2023-05-27T21:41:22;10.70;;;3.50;;
69588;SDS011;56792;50.644;17.984;2023-05-27T21:44:13;8.90;;;3.20;;
69588;SDS011;56792;50.644;17.984;2023-05-27T21:46:45;7.30;;;3.00;;
69588;SDS011;56792;50.644;17.984;2023-05-27T21:49:17;9.00;;;3.40;;
69588;SDS011;56792;50.644;17.984;2023-05-27T21:52:09;14.00;;;7.00;;
69588;SDS011;56792;50.644;17.984;2023-05-27T21:54:40;9.90;;;3.40;;
69588;SDS011;56792;50.644;17.984;2023-05-27T21:57:11;10.10;;;3.40;;
69588;SDS011;56792;50.644;17.984;2023-05-27T21:59:43;8.20;;;4.10;;
69588;SDS011;56792;50.644;17.984;2023-05-27T22:02:14;9.60;;;4.30;;
69588;SDS011;56792;50.644;17.984;2023-05-27T22:04:46;10.40;;;4.60;;
69588;SDS011;56792;50.644;17.984;2023-05-27T22:07:17;9.10;;;4.50;;
69588;SDS011;56792;50.644;17.984;2023-05-27T22:09:49;9.80;;;4.20;;
69588;SDS011;56792;50.644;17.984;2023-05-27T22:12:20;8.90;;;3.90;;
